DEDAF LSZA-EDRM
Flight info
| Callsign | DEDAF |
|---|---|
| Flight time | 1h 39m |
| Altitude | 4000 |
| Route | DCT |
| Aircraft | BT36/L-BDFGLORY/S |
Departure
| Time | 2026-04-27 20:25 |
|---|---|
| Airport | Lugano Airport (LSZA) |
Arrival
| Time | 2026-04-27 22:05 |
|---|---|
| Airport | Traben-Trarbach/Mont Royal Airfield (EDRM) |
| Time | Latitude | Longitude | Altitude | Speed | Heading |
|---|---|---|---|---|---|
| 2026-04-27 20:18 | 46.00189 | 8.90726 | 897 ft | 0 kts | 199° |
| 2026-04-27 20:21 | 46.00174 | 8.90748 | 897 ft | 9 kts | 60° |
| 2026-04-27 20:21 | 46.00175 | 8.90768 | 897 ft | 0 kts | 107° |
| 2026-04-27 20:21 | 46.00171 | 8.90788 | 897 ft | 0 kts | 106° |
| 2026-04-27 20:22 | 46.00171 | 8.90802 | 897 ft | 7 kts | 73° |
| 2026-04-27 20:22 | 46.00287 | 8.90874 | 897 ft | 22 kts | 19° |
| 2026-04-27 20:22 | 46.00364 | 8.90911 | 897 ft | 10 kts | 334° |
| 2026-04-27 20:22 | 46.00322 | 8.90870 | 897 ft | 5 kts | 193° |
| 2026-04-27 20:23 | 46.00238 | 8.90852 | 897 ft | 18 kts | 192° |
| 2026-04-27 20:23 | 46.00159 | 8.90827 | 897 ft | 0 kts | 159° |
| 2026-04-27 20:23 | 46.00153 | 8.90836 | 897 ft | 0 kts | 120° |
| 2026-04-27 20:23 | 46.00151 | 8.90843 | 897 ft | 1 kts | 104° |
| 2026-04-27 20:24 | 46.00145 | 8.90881 | 896 ft | 6 kts | 104° |
| 2026-04-27 20:24 | 46.00123 | 8.90912 | 897 ft | 0 kts | 198° |
| 2026-04-27 20:24 | 45.99819 | 8.90766 | 977 ft | 77 kts | 195° |
| 2026-04-27 20:25 | 45.99222 | 8.90529 | 1339 ft | 100 kts | 195° |
| 2026-04-27 20:25 | 45.98517 | 8.90087 | 1659 ft | 122 kts | 217° |
| 2026-04-27 20:25 | 45.97806 | 8.89227 | 1745 ft | 146 kts | 196° |
| 2026-04-27 20:25 | 45.96752 | 8.89108 | 1727 ft | 155 kts | 170° |
| 2026-04-27 20:26 | 45.95815 | 8.88621 | 1988 ft | 149 kts | 240° |
| 2026-04-27 20:26 | 45.95868 | 8.87204 | 2065 ft | 157 kts | 297° |
| 2026-04-27 20:26 | 45.96433 | 8.85904 | 2260 ft | 153 kts | 313° |
| 2026-04-27 20:26 | 45.97173 | 8.84811 | 2449 ft | 153 kts | 316° |
| 2026-04-27 20:27 | 45.97995 | 8.83792 | 2515 ft | 160 kts | 319° |
| 2026-04-27 20:27 | 45.98728 | 8.82533 | 2389 ft | 169 kts | 298° |
| 2026-04-27 20:27 | 45.99079 | 8.80967 | 2502 ft | 157 kts | 283° |
| 2026-04-27 20:27 | 45.99339 | 8.79472 | 2580 ft | 154 kts | 284° |
| 2026-04-27 20:28 | 45.99647 | 8.77978 | 2514 ft | 159 kts | 289° |
| 2026-04-27 20:28 | 46.00091 | 8.76517 | 2455 ft | 158 kts | 301° |
| 2026-04-27 20:28 | 46.00817 | 8.75337 | 2396 ft | 159 kts | 320° |
| 2026-04-27 20:28 | 46.01411 | 8.74728 | 2404 ft | 156 kts | 327° |
| 2026-04-27 20:29 | 46.02671 | 8.73667 | 2327 ft | 157 kts | 332° |
| 2026-04-27 20:29 | 46.03643 | 8.72949 | 2292 ft | 156 kts | 334° |
| 2026-04-27 20:29 | 46.04620 | 8.72346 | 2384 ft | 151 kts | 339° |
| 2026-04-27 20:29 | 46.05616 | 8.71916 | 2478 ft | 149 kts | 346° |
| 2026-04-27 20:30 | 46.06649 | 8.71664 | 2480 ft | 152 kts | 353° |
| 2026-04-27 20:30 | 46.07712 | 8.71569 | 2461 ft | 153 kts | 358° |
| 2026-04-27 20:30 | 46.08774 | 8.71721 | 2460 ft | 154 kts | 13° |
| 2026-04-27 20:30 | 46.09782 | 8.72236 | 2460 ft | 154 kts | 22° |
| 2026-04-27 20:31 | 46.10775 | 8.72850 | 2463 ft | 158 kts | 27° |
| 2026-04-27 20:31 | 46.11655 | 8.73819 | 2465 ft | 161 kts | 43° |
| 2026-04-27 20:31 | 46.12404 | 8.75000 | 2468 ft | 162 kts | 51° |
| 2026-04-27 20:31 | 46.13056 | 8.76336 | 2470 ft | 163 kts | 57° |
| 2026-04-27 20:32 | 46.13620 | 8.77755 | 2472 ft | 163 kts | 63° |
| 2026-04-27 20:32 | 46.14142 | 8.79238 | 2467 ft | 172 kts | 63° |
| 2026-04-27 20:32 | 46.14688 | 8.80812 | 2467 ft | 176 kts | 63° |
| 2026-04-27 20:32 | 46.15237 | 8.82393 | 2467 ft | 176 kts | 63° |
| 2026-04-27 20:33 | 46.15683 | 8.84036 | 2466 ft | 177 kts | 72° |
| 2026-04-27 20:33 | 46.16039 | 8.85732 | 2468 ft | 177 kts | 74° |
| 2026-04-27 20:33 | 46.16337 | 8.87456 | 2468 ft | 177 kts | 79° |
| 2026-04-27 20:33 | 46.16484 | 8.89220 | 2468 ft | 177 kts | 84° |
| 2026-04-27 20:34 | 46.16615 | 8.90991 | 2468 ft | 177 kts | 83° |
| 2026-04-27 20:34 | 46.16792 | 8.92750 | 2467 ft | 177 kts | 81° |
| 2026-04-27 20:34 | 46.16994 | 8.94500 | 2467 ft | 177 kts | 80° |
| 2026-04-27 20:34 | 46.17215 | 8.96245 | 2467 ft | 177 kts | 78° |
| 2026-04-27 20:35 | 46.17475 | 8.97985 | 2468 ft | 177 kts | 77° |
| 2026-04-27 20:35 | 46.17850 | 8.99678 | 2465 ft | 177 kts | 62° |
| 2026-04-27 20:35 | 46.18588 | 9.01093 | 2464 ft | 177 kts | 45° |
| 2026-04-27 20:35 | 46.19528 | 9.02240 | 2465 ft | 177 kts | 37° |
| 2026-04-27 20:36 | 46.20581 | 9.03109 | 2464 ft | 178 kts | 20° |
| 2026-04-27 20:36 | 46.21786 | 9.03498 | 2457 ft | 178 kts | 5° |
| 2026-04-27 20:36 | 46.23015 | 9.03314 | 2458 ft | 179 kts | 343° |
| 2026-04-27 20:36 | 46.24149 | 9.02586 | 2458 ft | 179 kts | 330° |
| 2026-04-27 20:37 | 46.25216 | 9.01661 | 2459 ft | 179 kts | 328° |
| 2026-04-27 20:37 | 46.26283 | 9.00736 | 2460 ft | 179 kts | 330° |
| 2026-04-27 20:37 | 46.27396 | 8.99922 | 2461 ft | 179 kts | 335° |
| 2026-04-27 20:37 | 46.28535 | 8.99181 | 2462 ft | 180 kts | 337° |
| 2026-04-27 20:38 | 46.29697 | 8.98521 | 2464 ft | 179 kts | 340° |
| 2026-04-27 20:38 | 46.30872 | 8.97913 | 2464 ft | 179 kts | 341° |
| 2026-04-27 20:38 | 46.32069 | 8.97410 | 2466 ft | 179 kts | 344° |
| 2026-04-27 20:38 | 46.33268 | 8.96922 | 2466 ft | 179 kts | 344° |
| 2026-04-27 20:39 | 46.34456 | 8.96384 | 2465 ft | 179 kts | 338° |
| 2026-04-27 20:39 | 46.35548 | 8.95528 | 2463 ft | 179 kts | 320° |
| 2026-04-27 20:39 | 46.36307 | 8.94118 | 2465 ft | 179 kts | 297° |
| 2026-04-27 20:39 | 46.36850 | 8.92498 | 2467 ft | 179 kts | 295° |
| 2026-04-27 20:40 | 46.37485 | 8.90954 | 2469 ft | 179 kts | 307° |
| 2026-04-27 20:40 | 46.38292 | 8.89587 | 2470 ft | 178 kts | 313° |
| 2026-04-27 20:40 | 46.39200 | 8.88366 | 2475 ft | 178 kts | 319° |
| 2026-04-27 20:40 | 46.40170 | 8.87246 | 2477 ft | 179 kts | 323° |
| 2026-04-27 20:41 | 46.41162 | 8.86241 | 2727 ft | 166 kts | 325° |
| 2026-04-27 20:41 | 46.42096 | 8.85371 | 3092 ft | 154 kts | 328° |
| 2026-04-27 20:41 | 46.42980 | 8.84587 | 3442 ft | 149 kts | 328° |
| 2026-04-27 20:41 | 46.43904 | 8.83769 | 3498 ft | 163 kts | 328° |
| 2026-04-27 20:42 | 46.44904 | 8.82903 | 3503 ft | 172 kts | 331° |
| 2026-04-27 20:42 | 46.46041 | 8.82364 | 3563 ft | 172 kts | 353° |
| 2026-04-27 20:42 | 46.47043 | 8.81647 | 3937 ft | 157 kts | 308° |
| 2026-04-27 20:42 | 46.47336 | 8.80238 | 4449 ft | 140 kts | 281° |
| 2026-04-27 20:43 | 46.47651 | 8.78979 | 4977 ft | 127 kts | 291° |
| 2026-04-27 20:43 | 46.47992 | 8.77839 | 5478 ft | 120 kts | 291° |
| 2026-04-27 20:43 | 46.48300 | 8.76703 | 5978 ft | 124 kts | 290° |
| 2026-04-27 20:43 | 46.48625 | 8.75528 | 6541 ft | 126 kts | 291° |
| 2026-04-27 20:44 | 46.48956 | 8.74346 | 7100 ft | 126 kts | 291° |
| 2026-04-27 20:44 | 46.49343 | 8.73209 | 7620 ft | 127 kts | 304° |
| 2026-04-27 20:44 | 46.49850 | 8.72157 | 8133 ft | 128 kts | 304° |
| 2026-04-27 20:44 | 46.50381 | 8.71122 | 8671 ft | 128 kts | 306° |
| 2026-04-27 20:45 | 46.50922 | 8.70092 | 9222 ft | 128 kts | 306° |
| 2026-04-27 20:45 | 46.51620 | 8.69170 | 9511 ft | 153 kts | 329° |
| 2026-04-27 20:45 | 46.52695 | 8.68506 | 9526 ft | 181 kts | 339° |
| 2026-04-27 20:45 | 46.53921 | 8.67812 | 9524 ft | 192 kts | 336° |
| 2026-04-27 20:46 | 46.55132 | 8.67103 | 9509 ft | 185 kts | 338° |
| 2026-04-27 20:46 | 46.56357 | 8.66545 | 9510 ft | 184 kts | 342° |
| 2026-04-27 20:46 | 46.57560 | 8.65947 | 9510 ft | 181 kts | 339° |
| 2026-04-27 20:46 | 46.58753 | 8.65376 | 9508 ft | 181 kts | 339° |
| 2026-04-27 20:47 | 46.59926 | 8.64712 | 9515 ft | 181 kts | 337° |
| 2026-04-27 20:47 | 46.61095 | 8.64041 | 9517 ft | 181 kts | 337° |
| 2026-04-27 20:47 | 46.62247 | 8.63325 | 9506 ft | 182 kts | 334° |
| 2026-04-27 20:47 | 46.63392 | 8.62542 | 9515 ft | 182 kts | 333° |
| 2026-04-27 20:48 | 46.64460 | 8.61584 | 9509 ft | 180 kts | 316° |
| 2026-04-27 20:48 | 46.65039 | 8.60670 | 9425 ft | 185 kts | 303° |
| 2026-04-27 20:48 | 46.65274 | 8.58253 | 9149 ft | 191 kts | 252° |
| 2026-04-27 20:48 | 46.64499 | 8.56759 | 8931 ft | 182 kts | 213° |
| 2026-04-27 20:49 | 46.63325 | 8.56375 | 8715 ft | 173 kts | 172° |
| 2026-04-27 20:49 | 46.62330 | 8.57217 | 8501 ft | 166 kts | 129° |
| 2026-04-27 20:49 | 46.62127 | 8.58762 | 8302 ft | 164 kts | 71° |
| 2026-04-27 20:49 | 46.63026 | 8.59909 | 8092 ft | 187 kts | 18° |
| 2026-04-27 20:50 | 46.64301 | 8.59579 | 7861 ft | 198 kts | 336° |
| 2026-04-27 20:50 | 46.65676 | 8.59544 | 7681 ft | 203 kts | 2° |
| 2026-04-27 20:50 | 46.67063 | 8.59205 | 7543 ft | 202 kts | 348° |
| 2026-04-27 20:50 | 46.68478 | 8.59144 | 7529 ft | 206 kts | 7° |
| 2026-04-27 20:51 | 46.69859 | 8.59734 | 7516 ft | 208 kts | 21° |
| 2026-04-27 20:51 | 46.71176 | 8.60626 | 7523 ft | 210 kts | 28° |
| 2026-04-27 20:51 | 46.72463 | 8.61647 | 7520 ft | 211 kts | 29° |
| 2026-04-27 20:51 | 46.73734 | 8.62713 | 7525 ft | 211 kts | 28° |
| 2026-04-27 20:52 | 46.75073 | 8.63670 | 7339 ft | 217 kts | 24° |
| 2026-04-27 20:52 | 46.76492 | 8.64445 | 7142 ft | 219 kts | 14° |
| 2026-04-27 20:52 | 46.77475 | 8.64767 | 7003 ft | 219 kts | 10° |
| 2026-04-27 20:52 | 46.79486 | 8.64938 | 6738 ft | 218 kts | 354° |
| 2026-04-27 20:53 | 46.80503 | 8.64789 | 6617 ft | 216 kts | 353° |
| 2026-04-27 20:53 | 46.82418 | 8.64466 | 6355 ft | 200 kts | 353° |
| 2026-04-27 20:53 | 46.83732 | 8.64098 | 6142 ft | 186 kts | 345° |
| 2026-04-27 20:53 | 46.84958 | 8.63641 | 5927 ft | 178 kts | 345° |
| 2026-04-27 20:54 | 46.86969 | 8.62924 | 5302 ft | 179 kts | 345° |
| 2026-04-27 20:54 | 46.88181 | 8.62495 | 4938 ft | 179 kts | 346° |
| 2026-04-27 20:54 | 46.89387 | 8.62045 | 4561 ft | 179 kts | 345° |
| 2026-04-27 20:55 | 46.90595 | 8.61589 | 4171 ft | 178 kts | 345° |
| 2026-04-27 20:55 | 46.91790 | 8.61141 | 3797 ft | 177 kts | 345° |
| 2026-04-27 20:55 | 46.92974 | 8.60709 | 3514 ft | 170 kts | 345° |
| 2026-04-27 20:55 | 46.94064 | 8.60330 | 3505 ft | 154 kts | 345° |
| 2026-04-27 20:56 | 46.95074 | 8.59981 | 3497 ft | 145 kts | 345° |
| 2026-04-27 20:56 | 46.96034 | 8.59687 | 3503 ft | 138 kts | 348° |
| 2026-04-27 20:56 | 46.96961 | 8.59412 | 3506 ft | 134 kts | 347° |
| 2026-04-27 20:56 | 46.97795 | 8.58913 | 3501 ft | 127 kts | 319° |
| 2026-04-27 20:57 | 46.98346 | 8.57826 | 3510 ft | 150 kts | 291° |
| 2026-04-27 20:57 | 46.98374 | 8.56202 | 3521 ft | 171 kts | 262° |
| 2026-04-27 20:57 | 46.98246 | 8.54398 | 3520 ft | 183 kts | 265° |
| 2026-04-27 20:57 | 46.98224 | 8.52491 | 3444 ft | 192 kts | 272° |
| 2026-04-27 20:58 | 46.98419 | 8.50539 | 3358 ft | 196 kts | 284° |
| 2026-04-27 20:58 | 46.98945 | 8.48695 | 3266 ft | 198 kts | 299° |
| 2026-04-27 20:58 | 46.99667 | 8.46970 | 3173 ft | 199 kts | 301° |
| 2026-04-27 20:58 | 47.00368 | 8.45230 | 3074 ft | 199 kts | 296° |
| 2026-04-27 20:59 | 47.00890 | 8.43364 | 3025 ft | 197 kts | 289° |
| 2026-04-27 20:59 | 47.01345 | 8.41509 | 3025 ft | 195 kts | 289° |
| 2026-04-27 20:59 | 47.01833 | 8.39653 | 3024 ft | 195 kts | 291° |
| 2026-04-27 20:59 | 47.02348 | 8.37821 | 3023 ft | 195 kts | 292° |
| 2026-04-27 21:00 | 47.02871 | 8.35987 | 3020 ft | 195 kts | 293° |
| 2026-04-27 21:00 | 47.03533 | 8.34254 | 3018 ft | 195 kts | 302° |
| 2026-04-27 21:00 | 47.04283 | 8.32601 | 3018 ft | 193 kts | 303° |
| 2026-04-27 21:00 | 47.05020 | 8.30979 | 3020 ft | 191 kts | 303° |
| 2026-04-27 21:01 | 47.05731 | 8.29347 | 3020 ft | 190 kts | 297° |
| 2026-04-27 21:01 | 47.06303 | 8.27612 | 3018 ft | 188 kts | 294° |
| 2026-04-27 21:01 | 47.06877 | 8.25882 | 3013 ft | 188 kts | 297° |
| 2026-04-27 21:01 | 47.07717 | 8.24425 | 3012 ft | 188 kts | 315° |
| 2026-04-27 21:02 | 47.08647 | 8.23129 | 3012 ft | 186 kts | 316° |
| 2026-04-27 21:02 | 47.09576 | 8.21821 | 3017 ft | 184 kts | 317° |
| 2026-04-27 21:02 | 47.10479 | 8.20492 | 3020 ft | 182 kts | 319° |
| 2026-04-27 21:02 | 47.11417 | 8.19268 | 3001 ft | 180 kts | 321° |
| 2026-04-27 21:03 | 47.12350 | 8.18046 | 2999 ft | 179 kts | 319° |
| 2026-04-27 21:03 | 47.13246 | 8.16780 | 2997 ft | 178 kts | 318° |
| 2026-04-27 21:03 | 47.14131 | 8.15516 | 2996 ft | 177 kts | 318° |
| 2026-04-27 21:03 | 47.15017 | 8.14270 | 2996 ft | 176 kts | 319° |
| 2026-04-27 21:04 | 47.15912 | 8.13041 | 2996 ft | 176 kts | 320° |
| 2026-04-27 21:04 | 47.16816 | 8.11834 | 2998 ft | 175 kts | 320° |
| 2026-04-27 21:04 | 47.17731 | 8.10618 | 3006 ft | 179 kts | 320° |
| 2026-04-27 21:04 | 47.18652 | 8.09390 | 3001 ft | 177 kts | 320° |
| 2026-04-27 21:05 | 47.19559 | 8.08174 | 3018 ft | 174 kts | 319° |
| 2026-04-27 21:05 | 47.20446 | 8.06986 | 3160 ft | 172 kts | 320° |
| 2026-04-27 21:05 | 47.21327 | 8.05804 | 3303 ft | 170 kts | 320° |
| 2026-04-27 21:05 | 47.22191 | 8.04626 | 3454 ft | 169 kts | 320° |
| 2026-04-27 21:06 | 47.23049 | 8.03471 | 3599 ft | 167 kts | 320° |
| 2026-04-27 21:06 | 47.23904 | 8.02323 | 3738 ft | 165 kts | 320° |
| 2026-04-27 21:06 | 47.24749 | 8.01185 | 3906 ft | 165 kts | 321° |
| 2026-04-27 21:06 | 47.25587 | 8.00043 | 4003 ft | 163 kts | 319° |
| 2026-04-27 21:07 | 47.26411 | 7.98935 | 4000 ft | 156 kts | 320° |
| 2026-04-27 21:07 | 47.27173 | 7.97923 | 3995 ft | 144 kts | 320° |
| 2026-04-27 21:07 | 47.27898 | 7.96945 | 4001 ft | 143 kts | 320° |
| 2026-04-27 21:07 | 47.28623 | 7.95964 | 4001 ft | 140 kts | 320° |
| 2026-04-27 21:08 | 47.29355 | 7.94974 | 4005 ft | 147 kts | 321° |
| 2026-04-27 21:08 | 47.30119 | 7.93943 | 4020 ft | 151 kts | 320° |
| 2026-04-27 21:08 | 47.30901 | 7.92890 | 4020 ft | 153 kts | 320° |
| 2026-04-27 21:08 | 47.31694 | 7.91821 | 4011 ft | 156 kts | 320° |
| 2026-04-27 21:09 | 47.32507 | 7.90721 | 4005 ft | 156 kts | 320° |
| 2026-04-27 21:09 | 47.33288 | 7.89662 | 4013 ft | 155 kts | 320° |
| 2026-04-27 21:09 | 47.34068 | 7.88587 | 4001 ft | 151 kts | 320° |
| 2026-04-27 21:09 | 47.34829 | 7.87530 | 4010 ft | 152 kts | 320° |
| 2026-04-27 21:10 | 47.35615 | 7.86472 | 4002 ft | 153 kts | 320° |
| 2026-04-27 21:10 | 47.36412 | 7.85387 | 4009 ft | 162 kts | 320° |
| 2026-04-27 21:10 | 47.37281 | 7.84224 | 4037 ft | 174 kts | 322° |
| 2026-04-27 21:10 | 47.38282 | 7.83150 | 4038 ft | 180 kts | 330° |
| 2026-04-27 21:11 | 47.39391 | 7.82188 | 4013 ft | 191 kts | 334° |
| 2026-04-27 21:11 | 47.40568 | 7.81213 | 4012 ft | 197 kts | 332° |
| 2026-04-27 21:11 | 47.41702 | 7.80012 | 4018 ft | 203 kts | 322° |
| 2026-04-27 21:11 | 47.42798 | 7.78660 | 4021 ft | 205 kts | 322° |
| 2026-04-27 21:12 | 47.43892 | 7.77306 | 4029 ft | 207 kts | 322° |
| 2026-04-27 21:12 | 47.44981 | 7.75929 | 4022 ft | 205 kts | 322° |
| 2026-04-27 21:12 | 47.46054 | 7.74526 | 4015 ft | 205 kts | 318° |
| 2026-04-27 21:12 | 47.47025 | 7.73152 | 4009 ft | 184 kts | 320° |
| 2026-04-27 21:13 | 47.47954 | 7.71923 | 4009 ft | 183 kts | 322° |
| 2026-04-27 21:13 | 47.48960 | 7.70689 | 4006 ft | 187 kts | 323° |
| 2026-04-27 21:13 | 47.49993 | 7.69470 | 4011 ft | 196 kts | 324° |
| 2026-04-27 21:13 | 47.51056 | 7.68229 | 4030 ft | 198 kts | 324° |
| 2026-04-27 21:14 | 47.52142 | 7.66993 | 4042 ft | 190 kts | 326° |
| 2026-04-27 21:14 | 47.53216 | 7.65812 | 4040 ft | 194 kts | 324° |
| 2026-04-27 21:14 | 47.54223 | 7.64545 | 4027 ft | 191 kts | 321° |
| 2026-04-27 21:14 | 47.55222 | 7.63287 | 4042 ft | 188 kts | 323° |
| 2026-04-27 21:15 | 47.56259 | 7.62064 | 4036 ft | 194 kts | 324° |
| 2026-04-27 21:15 | 47.57312 | 7.60826 | 4040 ft | 191 kts | 324° |
| 2026-04-27 21:15 | 47.58328 | 7.59613 | 4024 ft | 186 kts | 322° |
| 2026-04-27 21:15 | 47.59300 | 7.58431 | 4018 ft | 167 kts | 324° |
| 2026-04-27 21:16 | 47.60180 | 7.57365 | 4009 ft | 172 kts | 322° |
| 2026-04-27 21:16 | 47.61141 | 7.56191 | 4022 ft | 185 kts | 323° |
| 2026-04-27 21:16 | 47.62188 | 7.55050 | 4018 ft | 187 kts | 336° |
| 2026-04-27 21:16 | 47.63449 | 7.54849 | 4017 ft | 183 kts | 7° |
| 2026-04-27 21:17 | 47.64740 | 7.54969 | 4023 ft | 191 kts | 5° |
| 2026-04-27 21:17 | 47.66091 | 7.55090 | 4022 ft | 198 kts | 5° |
| 2026-04-27 21:17 | 47.67486 | 7.55181 | 4020 ft | 204 kts | 6° |
| 2026-04-27 21:17 | 47.68904 | 7.55223 | 4010 ft | 203 kts | 2° |
| 2026-04-27 21:18 | 47.70318 | 7.55222 | 4028 ft | 205 kts | 1° |
| 2026-04-27 21:18 | 47.71751 | 7.55227 | 4018 ft | 205 kts | 2° |
| 2026-04-27 21:18 | 47.73175 | 7.55207 | 4014 ft | 204 kts | 359° |
| 2026-04-27 21:18 | 47.74589 | 7.55071 | 4017 ft | 203 kts | 356° |
| 2026-04-27 21:19 | 47.75997 | 7.54923 | 4008 ft | 203 kts | 358° |
| 2026-04-27 21:19 | 47.77408 | 7.54795 | 4011 ft | 204 kts | 358° |
| 2026-04-27 21:19 | 47.78811 | 7.54679 | 4024 ft | 206 kts | 359° |
| 2026-04-27 21:20 | 47.81665 | 7.54409 | 4004 ft | 201 kts | 358° |
| 2026-04-27 21:20 | 47.83058 | 7.54264 | 4004 ft | 201 kts | 358° |
| 2026-04-27 21:20 | 47.84469 | 7.54216 | 4001 ft | 204 kts | 2° |
| 2026-04-27 21:20 | 47.85881 | 7.54250 | 4014 ft | 204 kts | 2° |
| 2026-04-27 21:21 | 47.87305 | 7.54281 | 4009 ft | 204 kts | 2° |
| 2026-04-27 21:21 | 47.88727 | 7.54320 | 4005 ft | 204 kts | 2° |
| 2026-04-27 21:21 | 47.90148 | 7.54356 | 4001 ft | 204 kts | 2° |
| 2026-04-27 21:21 | 47.91562 | 7.54394 | 4003 ft | 204 kts | 3° |
| 2026-04-27 21:22 | 47.92985 | 7.54432 | 3999 ft | 204 kts | 2° |
| 2026-04-27 21:22 | 47.94397 | 7.54473 | 4001 ft | 203 kts | 3° |
| 2026-04-27 21:22 | 47.95809 | 7.54519 | 4000 ft | 202 kts | 2° |
| 2026-04-27 21:22 | 47.97215 | 7.54562 | 3999 ft | 202 kts | 3° |
| 2026-04-27 21:23 | 47.98620 | 7.54603 | 4015 ft | 202 kts | 3° |
| 2026-04-27 21:23 | 48.00023 | 7.54644 | 3997 ft | 201 kts | 3° |
| 2026-04-27 21:23 | 48.01417 | 7.54685 | 4004 ft | 201 kts | 3° |
| 2026-04-27 21:23 | 48.02823 | 7.54739 | 4007 ft | 202 kts | 2° |
| 2026-04-27 21:24 | 48.04231 | 7.54776 | 4016 ft | 203 kts | 2° |
| 2026-04-27 21:24 | 48.05653 | 7.54820 | 4009 ft | 203 kts | 3° |
| 2026-04-27 21:24 | 48.07041 | 7.54861 | 4004 ft | 201 kts | 2° |
| 2026-04-27 21:24 | 48.08437 | 7.54898 | 3996 ft | 201 kts | 2° |
| 2026-04-27 21:25 | 48.09840 | 7.54941 | 4006 ft | 203 kts | 3° |
| 2026-04-27 21:25 | 48.11249 | 7.54984 | 4018 ft | 202 kts | 3° |
| 2026-04-27 21:25 | 48.12664 | 7.55034 | 3784 ft | 198 kts | 3° |
| 2026-04-27 21:25 | 48.13997 | 7.55072 | 3523 ft | 186 kts | 2° |
| 2026-04-27 21:26 | 48.15304 | 7.55104 | 3274 ft | 191 kts | 3° |
| 2026-04-27 21:26 | 48.16652 | 7.55144 | 3039 ft | 198 kts | 4° |
| 2026-04-27 21:26 | 48.18007 | 7.55179 | 3005 ft | 189 kts | 3° |
| 2026-04-27 21:26 | 48.19311 | 7.55197 | 3006 ft | 185 kts | 2° |
| 2026-04-27 21:27 | 48.20584 | 7.55208 | 3015 ft | 181 kts | 2° |
| 2026-04-27 21:27 | 48.21860 | 7.55224 | 3013 ft | 185 kts | 3° |
| 2026-04-27 21:27 | 48.23151 | 7.55244 | 3010 ft | 186 kts | 3° |
| 2026-04-27 21:27 | 48.24448 | 7.55269 | 2933 ft | 189 kts | 4° |
| 2026-04-27 21:28 | 48.25742 | 7.55279 | 3018 ft | 185 kts | 2° |
| 2026-04-27 21:28 | 48.26986 | 7.54829 | 3004 ft | 189 kts | 329° |
| 2026-04-27 21:28 | 48.27770 | 7.53284 | 3001 ft | 191 kts | 288° |
| 2026-04-27 21:28 | 48.27811 | 7.51306 | 3004 ft | 190 kts | 263° |
| 2026-04-27 21:29 | 48.27648 | 7.49349 | 3011 ft | 188 kts | 261° |
| 2026-04-27 21:29 | 48.27410 | 7.47410 | 3023 ft | 189 kts | 257° |
| 2026-04-27 21:29 | 48.27127 | 7.45478 | 3023 ft | 189 kts | 255° |
| 2026-04-27 21:29 | 48.26802 | 7.43538 | 2892 ft | 196 kts | 255° |
| 2026-04-27 21:30 | 48.26468 | 7.41527 | 2726 ft | 201 kts | 255° |
| 2026-04-27 21:30 | 48.26131 | 7.39516 | 2726 ft | 197 kts | 255° |
| 2026-04-27 21:30 | 48.25797 | 7.37555 | 2717 ft | 194 kts | 255° |
| 2026-04-27 21:30 | 48.25469 | 7.35604 | 2715 ft | 192 kts | 255° |
| 2026-04-27 21:31 | 48.25145 | 7.33654 | 2710 ft | 192 kts | 255° |
| 2026-04-27 21:31 | 48.24907 | 7.31715 | 2704 ft | 190 kts | 271° |
| 2026-04-27 21:31 | 48.25390 | 7.29912 | 2707 ft | 189 kts | 313° |
| 2026-04-27 21:31 | 48.26502 | 7.28998 | 2709 ft | 182 kts | 353° |
| 2026-04-27 21:32 | 48.27719 | 7.29365 | 2719 ft | 183 kts | 28° |
| 2026-04-27 21:32 | 48.28629 | 7.30628 | 2735 ft | 180 kts | 59° |
| 2026-04-27 21:32 | 48.29233 | 7.32276 | 2711 ft | 179 kts | 64° |
| 2026-04-27 21:32 | 48.29801 | 7.33935 | 2712 ft | 179 kts | 64° |
| 2026-04-27 21:33 | 48.30504 | 7.35489 | 2717 ft | 186 kts | 41° |
| 2026-04-27 21:33 | 48.31612 | 7.36561 | 2716 ft | 191 kts | 39° |
| 2026-04-27 21:33 | 48.32668 | 7.37818 | 2708 ft | 193 kts | 41° |
| 2026-04-27 21:33 | 48.33819 | 7.38814 | 2709 ft | 192 kts | 24° |
| 2026-04-27 21:34 | 48.35067 | 7.39526 | 2711 ft | 192 kts | 22° |
| 2026-04-27 21:34 | 48.36325 | 7.40226 | 2719 ft | 195 kts | 23° |
| 2026-04-27 21:34 | 48.37602 | 7.40942 | 2724 ft | 196 kts | 23° |
| 2026-04-27 21:34 | 48.38875 | 7.41646 | 2727 ft | 195 kts | 23° |
| 2026-04-27 21:35 | 48.40155 | 7.42376 | 2700 ft | 196 kts | 23° |
| 2026-04-27 21:35 | 48.41497 | 7.42828 | 2702 ft | 199 kts | 9° |
| 2026-04-27 21:35 | 48.42867 | 7.43066 | 2703 ft | 198 kts | 8° |
| 2026-04-27 21:35 | 48.44235 | 7.43300 | 2710 ft | 198 kts | 9° |
| 2026-04-27 21:36 | 48.45605 | 7.43462 | 2721 ft | 201 kts | 5° |
| 2026-04-27 21:36 | 48.47005 | 7.43529 | 2709 ft | 201 kts | 4° |
| 2026-04-27 21:36 | 48.48398 | 7.43515 | 2709 ft | 200 kts | 358° |
| 2026-04-27 21:36 | 48.49773 | 7.43179 | 2705 ft | 200 kts | 349° |
| 2026-04-27 21:37 | 48.51131 | 7.42735 | 2701 ft | 198 kts | 352° |
| 2026-04-27 21:37 | 48.52492 | 7.42420 | 2706 ft | 198 kts | 354° |
| 2026-04-27 21:37 | 48.53863 | 7.42147 | 2719 ft | 200 kts | 355° |
| 2026-04-27 21:37 | 48.55238 | 7.41873 | 2721 ft | 200 kts | 353° |
| 2026-04-27 21:38 | 48.56620 | 7.41580 | 2722 ft | 200 kts | 354° |
| 2026-04-27 21:38 | 48.58007 | 7.41290 | 2717 ft | 202 kts | 354° |
| 2026-04-27 21:38 | 48.59405 | 7.40995 | 2711 ft | 204 kts | 354° |
| 2026-04-27 21:38 | 48.60804 | 7.40703 | 2715 ft | 202 kts | 354° |
| 2026-04-27 21:39 | 48.62191 | 7.40410 | 2707 ft | 200 kts | 354° |
| 2026-04-27 21:39 | 48.63587 | 7.40119 | 2724 ft | 205 kts | 354° |
| 2026-04-27 21:39 | 48.65000 | 7.39830 | 2706 ft | 204 kts | 355° |
| 2026-04-27 21:39 | 48.66398 | 7.39530 | 2710 ft | 202 kts | 355° |
| 2026-04-27 21:40 | 48.67782 | 7.39240 | 2706 ft | 200 kts | 356° |
| 2026-04-27 21:40 | 48.69146 | 7.38947 | 2707 ft | 196 kts | 355° |
| 2026-04-27 21:40 | 48.70497 | 7.38675 | 2711 ft | 195 kts | 356° |
| 2026-04-27 21:40 | 48.71852 | 7.38387 | 2709 ft | 196 kts | 356° |
| 2026-04-27 21:41 | 48.73202 | 7.38098 | 2731 ft | 197 kts | 356° |
| 2026-04-27 21:41 | 48.74586 | 7.37815 | 2705 ft | 201 kts | 356° |
| 2026-04-27 21:41 | 48.75973 | 7.37523 | 2724 ft | 202 kts | 355° |
| 2026-04-27 21:41 | 48.77355 | 7.37215 | 2722 ft | 199 kts | 355° |
| 2026-04-27 21:42 | 48.78266 | 7.37029 | 2715 ft | 199 kts | 356° |
| 2026-04-27 21:42 | 48.80078 | 7.36662 | 2711 ft | 196 kts | 356° |
| 2026-04-27 21:42 | 48.81428 | 7.36370 | 2712 ft | 196 kts | 355° |
| 2026-04-27 21:42 | 48.82780 | 7.36083 | 2712 ft | 196 kts | 356° |
| 2026-04-27 21:43 | 48.84128 | 7.35801 | 2708 ft | 194 kts | 355° |
| 2026-04-27 21:43 | 48.85464 | 7.35515 | 2712 ft | 194 kts | 356° |
| 2026-04-27 21:43 | 48.86354 | 7.35330 | 2719 ft | 195 kts | 356° |
| 2026-04-27 21:43 | 48.87708 | 7.35046 | 2724 ft | 197 kts | 356° |
| 2026-04-27 21:44 | 48.89064 | 7.34757 | 2712 ft | 196 kts | 356° |
| 2026-04-27 21:44 | 48.90409 | 7.34469 | 2724 ft | 197 kts | 356° |
| 2026-04-27 21:44 | 48.91773 | 7.34186 | 2716 ft | 198 kts | 356° |
| 2026-04-27 21:44 | 48.93137 | 7.33894 | 2716 ft | 198 kts | 356° |
| 2026-04-27 21:45 | 48.94500 | 7.33605 | 2733 ft | 198 kts | 356° |
| 2026-04-27 21:45 | 48.96314 | 7.33220 | 2725 ft | 200 kts | 356° |
| 2026-04-27 21:45 | 48.97243 | 7.33024 | 2738 ft | 199 kts | 356° |
| 2026-04-27 21:45 | 48.98618 | 7.32735 | 2726 ft | 198 kts | 356° |
| 2026-04-27 21:46 | 48.99983 | 7.32439 | 2730 ft | 198 kts | 356° |
| 2026-04-27 21:46 | 49.01344 | 7.32152 | 2731 ft | 197 kts | 356° |
| 2026-04-27 21:46 | 49.02704 | 7.31863 | 2731 ft | 198 kts | 356° |
| 2026-04-27 21:46 | 49.04054 | 7.31575 | 2742 ft | 200 kts | 358° |
| 2026-04-27 21:47 | 49.05427 | 7.31289 | 2734 ft | 200 kts | 356° |
| 2026-04-27 21:47 | 49.06821 | 7.30986 | 2658 ft | 204 kts | 356° |
| 2026-04-27 21:47 | 49.08217 | 7.30691 | 2648 ft | 200 kts | 356° |
| 2026-04-27 21:47 | 49.09600 | 7.30395 | 2650 ft | 201 kts | 356° |
| 2026-04-27 21:48 | 49.10975 | 7.30098 | 2652 ft | 198 kts | 356° |
| 2026-04-27 21:48 | 49.12334 | 7.29798 | 2649 ft | 196 kts | 356° |
| 2026-04-27 21:48 | 49.13681 | 7.29458 | 2661 ft | 197 kts | 355° |
| 2026-04-27 21:48 | 49.15040 | 7.29113 | 2649 ft | 198 kts | 355° |
| 2026-04-27 21:49 | 49.16399 | 7.28772 | 2659 ft | 199 kts | 355° |
| 2026-04-27 21:49 | 49.17768 | 7.28438 | 2655 ft | 200 kts | 355° |
| 2026-04-27 21:49 | 49.19135 | 7.28093 | 2653 ft | 199 kts | 355° |
| 2026-04-27 21:49 | 49.20504 | 7.27756 | 2653 ft | 200 kts | 355° |
| 2026-04-27 21:50 | 49.21875 | 7.27419 | 2661 ft | 200 kts | 356° |
| 2026-04-27 21:50 | 49.23254 | 7.27080 | 2653 ft | 201 kts | 355° |
| 2026-04-27 21:50 | 49.24636 | 7.26733 | 2641 ft | 200 kts | 355° |
| 2026-04-27 21:50 | 49.26002 | 7.26386 | 2648 ft | 199 kts | 355° |
| 2026-04-27 21:51 | 49.27357 | 7.26041 | 2643 ft | 196 kts | 355° |
| 2026-04-27 21:51 | 49.28706 | 7.25716 | 2644 ft | 197 kts | 356° |
| 2026-04-27 21:51 | 49.30058 | 7.25382 | 2655 ft | 196 kts | 356° |
| 2026-04-27 21:51 | 49.31400 | 7.25046 | 2657 ft | 199 kts | 355° |
| 2026-04-27 21:52 | 49.32770 | 7.24705 | 2651 ft | 200 kts | 355° |
| 2026-04-27 21:52 | 49.34138 | 7.24362 | 2647 ft | 199 kts | 355° |
| 2026-04-27 21:52 | 49.35504 | 7.24019 | 2648 ft | 200 kts | 355° |
| 2026-04-27 21:52 | 49.36868 | 7.23678 | 2646 ft | 198 kts | 356° |
| 2026-04-27 21:53 | 49.38217 | 7.23337 | 2645 ft | 195 kts | 356° |
| 2026-04-27 21:53 | 49.39550 | 7.23003 | 2656 ft | 195 kts | 355° |
| 2026-04-27 21:53 | 49.40884 | 7.22671 | 2651 ft | 193 kts | 355° |
| 2026-04-27 21:53 | 49.42216 | 7.22336 | 2644 ft | 193 kts | 355° |
| 2026-04-27 21:54 | 49.43545 | 7.22004 | 2650 ft | 194 kts | 356° |
| 2026-04-27 21:54 | 49.44903 | 7.21668 | 2526 ft | 202 kts | 356° |
| 2026-04-27 21:54 | 49.46295 | 7.21323 | 2410 ft | 203 kts | 355° |
| 2026-04-27 21:54 | 49.47693 | 7.20966 | 2273 ft | 203 kts | 355° |
| 2026-04-27 21:55 | 49.49069 | 7.20628 | 2255 ft | 198 kts | 355° |
| 2026-04-27 21:55 | 49.50422 | 7.20271 | 2249 ft | 195 kts | 355° |
| 2026-04-27 21:55 | 49.51736 | 7.19940 | 2258 ft | 194 kts | 355° |
| 2026-04-27 21:55 | 49.53069 | 7.19609 | 2251 ft | 193 kts | 355° |
| 2026-04-27 21:56 | 49.54390 | 7.19283 | 2249 ft | 192 kts | 355° |
| 2026-04-27 21:56 | 49.57026 | 7.18618 | 2246 ft | 191 kts | 353° |
| 2026-04-27 21:56 | 49.58336 | 7.18284 | 2259 ft | 191 kts | 353° |
| 2026-04-27 21:57 | 49.59647 | 7.17955 | 2259 ft | 190 kts | 353° |
| 2026-04-27 21:57 | 49.60955 | 7.17624 | 2256 ft | 192 kts | 353° |
| 2026-04-27 21:57 | 49.62271 | 7.17290 | 2250 ft | 190 kts | 353° |
| 2026-04-27 21:57 | 49.63565 | 7.16995 | 2266 ft | 188 kts | 353° |
| 2026-04-27 21:58 | 49.64870 | 7.16639 | 2258 ft | 191 kts | 352° |
| 2026-04-27 21:58 | 49.66181 | 7.16292 | 2329 ft | 191 kts | 354° |
| 2026-04-27 21:58 | 49.67497 | 7.15970 | 2400 ft | 191 kts | 353° |
| 2026-04-27 21:58 | 49.68807 | 7.15632 | 2455 ft | 192 kts | 354° |
| 2026-04-27 21:59 | 49.70141 | 7.15301 | 2463 ft | 196 kts | 354° |
| 2026-04-27 21:59 | 49.71463 | 7.14974 | 2589 ft | 194 kts | 354° |
| 2026-04-27 21:59 | 49.72804 | 7.14631 | 2716 ft | 191 kts | 354° |
| 2026-04-27 21:59 | 49.74085 | 7.14283 | 2837 ft | 188 kts | 355° |
| 2026-04-27 22:00 | 49.75386 | 7.13977 | 2963 ft | 190 kts | 354° |
| 2026-04-27 22:00 | 49.76692 | 7.13640 | 3093 ft | 191 kts | 354° |
| 2026-04-27 22:00 | 49.78005 | 7.13302 | 3219 ft | 191 kts | 354° |
| 2026-04-27 22:00 | 49.79313 | 7.12971 | 3345 ft | 190 kts | 354° |
| 2026-04-27 22:01 | 49.80614 | 7.12639 | 3486 ft | 190 kts | 353° |
| 2026-04-27 22:01 | 49.81922 | 7.12305 | 3598 ft | 190 kts | 353° |
| 2026-04-27 22:01 | 49.83228 | 7.11977 | 3738 ft | 192 kts | 354° |
| 2026-04-27 22:01 | 49.84552 | 7.11637 | 3869 ft | 192 kts | 353° |
| 2026-04-27 22:02 | 49.85920 | 7.11298 | 3688 ft | 206 kts | 353° |
| 2026-04-27 22:02 | 49.87358 | 7.10923 | 3385 ft | 213 kts | 353° |
| 2026-04-27 22:02 | 49.88846 | 7.10730 | 3045 ft | 214 kts | 6° |
| 2026-04-27 22:02 | 49.90326 | 7.10844 | 2739 ft | 213 kts | 4° |
| 2026-04-27 22:03 | 49.91790 | 7.10909 | 2365 ft | 192 kts | 5° |
| 2026-04-27 22:03 | 49.92835 | 7.10969 | 1952 ft | 122 kts | 5° |
| 2026-04-27 22:03 | 49.93594 | 7.10988 | 1791 ft | 102 kts | 4° |
| 2026-04-27 22:03 | 49.94295 | 7.11015 | 1639 ft | 101 kts | 6° |
| 2026-04-27 22:04 | 49.95006 | 7.11058 | 1433 ft | 101 kts | 5° |
| 2026-04-27 22:04 | 49.95685 | 7.11097 | 1205 ft | 94 kts | 1° |
| 2026-04-27 22:04 | 49.96298 | 7.11133 | 1017 ft | 87 kts | 7° |
| 2026-04-27 22:04 | 49.96862 | 7.11170 | 921 ft | 67 kts | 6° |
| 2026-04-27 22:05 | 49.97106 | 7.11177 | 933 ft | 10 kts | 317° |
| 2026-04-27 22:05 | 49.97132 | 7.11111 | 934 ft | 2 kts | 336° |
| 2026-04-27 22:05 | 49.97145 | 7.11110 | 935 ft | 0 kts | 16° |
| 2026-04-27 22:16 | 49.97153 | 7.11101 | 937 ft | 2 kts | 67° |
| 2026-04-27 22:16 | 49.97154 | 7.11103 | 937 ft | 0 kts | 231° |
| 2026-04-27 22:17 | 49.97153 | 7.11103 | 937 ft | 0 kts | 231° |